This is the latest recevied weather packets stored in our database for station/object KC1TWD. If no packets are shown the sender has not sent any weather packets the latest 10 day(s).
| Time | Temp. | Humidity | Pressure | Rain* | Wind** | Luminosity | Snow |
|---|---|---|---|---|---|---|---|
| 1777320457 | 22.78° C | 28% | 1022.8 hPa | 0 mm | - | - | - |
| 1777320155 | 22.78° C | 30% | 1022.7 hPa | 0 mm | - | - | - |
| 1777319852 | 22.78° C | 30% | 1022.7 hPa | 0 mm | - | - | - |
| 1777319549 | 23.33° C | 29% | 1023.1 hPa | 0 mm | - | - | - |
| 1777319246 | 22.78° C | 29% | 1022.8 hPa | 0 mm | - | - | - |
| 1777318942 | 22.78° C | 28% | 1022.8 hPa | 0 mm | - | - | - |
| 1777318640 | 22.78° C | 29% | 1022.9 hPa | 0 mm | - | - | - |
| 1777318335 | 22.78° C | 28% | 1023 hPa | 0 mm | - | - | - |
| 1777318032 | 23.33° C | 27% | 1023 hPa | 0 mm | - | - | - |
| 1777317729 | 23.89° C | 26% | 1022.9 hPa | 0 mm | - | - | - |
| 1777317427 | 23.33° C | 27% | 1022.9 hPa | 0 mm | - | - | - |
| 1777317123 | 23.33° C | 28% | 1023 hPa | 0 mm | - | - | - |
| 1777316819 | 22.78° C | 28% | 1023.1 hPa | 0 mm | - | - | - |
| 1777316516 | 23.33° C | 28% | 1023.2 hPa | 0 mm | - | - | - |
| 1777316213 | 23.33° C | 27% | 1023.3 hPa | 0 mm | - | - | - |
| 1777315910 | 22.78° C | 28% | 1023.3 hPa | 0 mm | - | - | - |
| 1777315609 | 22.78° C | 27% | 1023.6 hPa | 0 mm | - | - | - |
| 1777315306 | 22.78° C | 29% | 1023.5 hPa | 0 mm | - | - | - |
| 1777315004 | 22.78° C | 27% | 1023.5 hPa | 0 mm | - | - | - |
| 1777314699 | 22.78° C | 28% | 1023.4 hPa | 0 mm | - | - | - |
| 1777314396 | 21.67° C | 31% | 1023.4 hPa | 0 mm | - | - | - |
| 1777314093 | 22.22° C | 28% | 1023.7 hPa | 0 mm | - | - | - |
| 1777313791 | 22.22° C | 29% | 1023.6 hPa | 0 mm | - | - | - |
| 1777313488 | 22.78° C | 29% | 1023.7 hPa | 0 mm | - | - | - |
| 1777313186 | 23.33° C | 28% | 1023.7 hPa | 0 mm | - | - | - |
* Rain latest hour (hover to see other rain measurements)
** Current wind speed in m/s (hover to see current wind gust speed)